sensor_id;sensor_type;location;lat;lon;timestamp;pressure;altitude;pressure_sealevel;temperature;humidity
12203;BME280;6164;42.178;24.622;2023-04-08T00:00:52;99836.47;;;8.84;72.45
12203;BME280;6164;42.178;24.622;2023-04-08T00:03:19;99842.13;;;8.89;72.11
12203;BME280;6164;42.178;24.622;2023-04-08T00:05:45;99841.28;;;8.89;72.18
12203;BME280;6164;42.178;24.622;2023-04-08T00:08:12;99831.75;;;8.88;74.37
12203;BME280;6164;42.178;24.622;2023-04-08T00:10:38;99838.44;;;8.82;75.73
12203;BME280;6164;42.178;24.622;2023-04-08T00:13:05;99839.84;;;8.77;77.00
12203;BME280;6164;42.178;24.622;2023-04-08T00:15:33;99832.88;;;8.68;76.99
12203;BME280;6164;42.178;24.622;2023-04-08T00:17:59;99839.56;;;8.62;77.17
12203;BME280;6164;42.178;24.622;2023-04-08T00:20:26;99851.13;;;8.52;77.27
12203;BME280;6164;42.178;24.622;2023-04-08T00:22:52;99848.25;;;8.45;78.32
12203;BME280;6164;42.178;24.622;2023-04-08T00:25:19;99856.22;;;8.36;79.91
12203;BME280;6164;42.178;24.622;2023-04-08T00:27:45;99854.28;;;8.38;79.84
12203;BME280;6164;42.178;24.622;2023-04-08T00:30:12;99849.00;;;8.38;80.78
12203;BME280;6164;42.178;24.622;2023-04-08T00:32:41;99841.25;;;8.36;81.90
12203;BME280;6164;42.178;24.622;2023-04-08T00:35:07;99847.50;;;8.35;82.08
12203;BME280;6164;42.178;24.622;2023-04-08T00:37:34;99844.06;;;8.35;81.09
12203;BME280;6164;42.178;24.622;2023-04-08T00:40:01;99842.53;;;8.32;80.47
12203;BME280;6164;42.178;24.622;2023-04-08T00:42:28;99848.78;;;8.31;80.02
12203;BME280;6164;42.178;24.622;2023-04-08T00:44:55;99850.41;;;8.32;79.61
12203;BME280;6164;42.178;24.622;2023-04-08T00:47:22;99862.47;;;8.35;79.74
12203;BME280;6164;42.178;24.622;2023-04-08T00:49:50;99864.25;;;8.34;79.84
12203;BME280;6164;42.178;24.622;2023-04-08T00:52:17;99865.94;;;8.35;81.01
12203;BME280;6164;42.178;24.622;2023-04-08T00:54:43;99869.66;;;8.33;82.01
12203;BME280;6164;42.178;24.622;2023-04-08T00:57:09;99875.75;;;8.33;82.83
12203;BME280;6164;42.178;24.622;2023-04-08T00:59:36;99867.19;;;8.31;83.59
12203;BME280;6164;42.178;24.622;2023-04-08T01:02:06;99868.16;;;8.30;83.69
12203;BME280;6164;42.178;24.622;2023-04-08T01:04:38;99871.91;;;8.28;82.44
12203;BME280;6164;42.178;24.622;2023-04-08T01:07:10;99870.13;;;8.28;81.46
12203;BME280;6164;42.178;24.622;2023-04-08T01:09:40;99878.31;;;8.25;80.92
12203;BME280;6164;42.178;24.622;2023-04-08T01:12:10;99875.91;;;8.22;80.64
12203;BME280;6164;42.178;24.622;2023-04-08T01:14:38;99870.66;;;8.22;81.03
12203;BME280;6164;42.178;24.622;2023-04-08T01:17:07;99870.41;;;8.16;81.82
12203;BME280;6164;42.178;24.622;2023-04-08T01:19:36;99879.97;;;8.17;83.33
12203;BME280;6164;42.178;24.622;2023-04-08T01:22:07;99880.78;;;8.17;84.22
12203;BME280;6164;42.178;24.622;2023-04-08T01:24:38;99881.63;;;8.18;84.76
12203;BME280;6164;42.178;24.622;2023-04-08T01:27:09;99878.97;;;8.18;84.54
12203;BME280;6164;42.178;24.622;2023-04-08T01:29:36;99872.63;;;8.20;84.65
12203;BME280;6164;42.178;24.622;2023-04-08T01:32:03;99879.25;;;8.24;83.88
12203;BME280;6164;42.178;24.622;2023-04-08T01:34:30;99883.72;;;8.24;83.00
12203;BME280;6164;42.178;24.622;2023-04-08T01:36:58;99876.91;;;8.21;82.26
12203;BME280;6164;42.178;24.622;2023-04-08T01:39:25;99876.91;;;8.21;82.60
12203;BME280;6164;42.178;24.622;2023-04-08T01:41:52;99887.16;;;8.24;83.73
12203;BME280;6164;42.178;24.622;2023-04-08T01:44:21;99888.81;;;8.25;84.35
12203;BME280;6164;42.178;24.622;2023-04-08T01:46:48;99882.56;;;8.26;84.63
12203;BME280;6164;42.178;24.622;2023-04-08T01:49:15;99883.56;;;8.25;85.55
12203;BME280;6164;42.178;24.622;2023-04-08T01:51:42;99885.34;;;8.25;84.66
12203;BME280;6164;42.178;24.622;2023-04-08T01:54:09;99880.78;;;8.27;85.08
12203;BME280;6164;42.178;24.622;2023-04-08T01:56:36;99884.91;;;8.29;85.52
12203;BME280;6164;42.178;24.622;2023-04-08T01:59:05;99890.31;;;8.28;86.61
12203;BME280;6164;42.178;24.622;2023-04-08T02:01:34;99894.75;;;8.27;89.42
12203;BME280;6164;42.178;24.622;2023-04-08T02:04:01;99901.81;;;8.27;92.35
12203;BME280;6164;42.178;24.622;2023-04-08T02:06:28;99900.41;;;8.23;96.79
12203;BME280;6164;42.178;24.622;2023-04-08T02:08:56;99913.84;;;8.29;100.00
12203;BME280;6164;42.178;24.622;2023-04-08T02:11:22;99907.47;;;8.32;100.00
12203;BME280;6164;42.178;24.622;2023-04-08T02:13:50;99898.91;;;8.30;100.00
12203;BME280;6164;42.178;24.622;2023-04-08T02:16:20;99911.06;;;8.31;100.00
12203;BME280;6164;42.178;24.622;2023-04-08T02:18:51;99911.22;;;8.29;100.00
12203;BME280;6164;42.178;24.622;2023-04-08T02:21:20;99923.25;;;8.32;100.00
12203;BME280;6164;42.178;24.622;2023-04-08T02:23:48;99925.75;;;8.33;100.00
12203;BME280;6164;42.178;24.622;2023-04-08T02:26:16;99927.38;;;8.34;100.00
12203;BME280;6164;42.178;24.622;2023-04-08T02:28:43;99916.88;;;8.34;100.00
12203;BME280;6164;42.178;24.622;2023-04-08T02:31:11;99920.03;;;8.38;100.00
12203;BME280;6164;42.178;24.622;2023-04-08T02:33:38;99918.78;;;8.42;100.00
12203;BME280;6164;42.178;24.622;2023-04-08T02:36:07;99916.81;;;8.44;100.00
12203;BME280;6164;42.178;24.622;2023-04-08T02:38:33;99917.66;;;8.44;100.00
12203;BME280;6164;42.178;24.622;2023-04-08T02:41:00;99922.91;;;8.44;100.00
12203;BME280;6164;42.178;24.622;2023-04-08T02:43:27;99932.75;;;8.42;100.00
12203;BME280;6164;42.178;24.622;2023-04-08T02:45:59;99931.94;;;8.42;100.00
12203;BME280;6164;42.178;24.622;2023-04-08T02:48:27;99926.38;;;8.45;100.00
12203;BME280;6164;42.178;24.622;2023-04-08T02:50:54;99930.09;;;8.42;100.00
12203;BME280;6164;42.178;24.622;2023-04-08T02:53:22;99922.22;;;8.42;100.00
12203;BME280;6164;42.178;24.622;2023-04-08T02:55:49;99937.03;;;8.43;100.00
12203;BME280;6164;42.178;24.622;2023-04-08T02:58:15;99937.69;;;8.45;100.00
12203;BME280;6164;42.178;24.622;2023-04-08T03:00:42;99937.03;;;8.43;100.00
12203;BME280;6164;42.178;24.622;2023-04-08T03:03:08;99949.22;;;8.44;100.00
12203;BME280;6164;42.178;24.622;2023-04-08T03:05:35;99946.59;;;8.44;100.00
12203;BME280;6164;42.178;24.622;2023-04-08T03:08:01;99942.97;;;8.45;100.00
12203;BME280;6164;42.178;24.622;2023-04-08T03:10:29;99952.00;;;8.43;100.00
12203;BME280;6164;42.178;24.622;2023-04-08T03:12:56;99953.94;;;8.41;100.00
12203;BME280;6164;42.178;24.622;2023-04-08T03:15:22;99945.75;;;8.44;100.00
12203;BME280;6164;42.178;24.622;2023-04-08T03:17:49;99955.47;;;8.43;100.00
12203;BME280;6164;42.178;24.622;2023-04-08T03:20:15;99951.31;;;8.41;100.00
12203;BME280;6164;42.178;24.622;2023-04-08T03:22:42;99952.28;;;8.40;100.00
12203;BME280;6164;42.178;24.622;2023-04-08T03:25:08;99946.34;;;8.38;100.00
12203;BME280;6164;42.178;24.622;2023-04-08T03:27:37;99950.91;;;8.36;100.00
12203;BME280;6164;42.178;24.622;2023-04-08T03:30:03;99941.38;;;8.35;100.00
12203;BME280;6164;42.178;24.622;2023-04-08T03:32:30;99944.00;;;8.35;100.00
12203;BME280;6164;42.178;24.622;2023-04-08T03:34:57;99942.47;;;8.32;100.00
12203;BME280;6164;42.178;24.622;2023-04-08T03:37:24;99948.03;;;8.29;100.00
12203;BME280;6164;42.178;24.622;2023-04-08T03:39:50;99953.75;;;8.25;100.00
12203;BME280;6164;42.178;24.622;2023-04-08T03:42:17;99957.06;;;8.27;100.00
12203;BME280;6164;42.178;24.622;2023-04-08T03:44:45;99957.34;;;8.24;100.00
12203;BME280;6164;42.178;24.622;2023-04-08T03:47:14;99965.09;;;8.25;100.00
12203;BME280;6164;42.178;24.622;2023-04-08T03:49:41;99966.44;;;8.29;100.00
12203;BME280;6164;42.178;24.622;2023-04-08T03:52:07;99970.88;;;8.29;100.00
12203;BME280;6164;42.178;24.622;2023-04-08T03:54:34;99963.97;;;8.28;100.00
12203;BME280;6164;42.178;24.622;2023-04-08T03:57:00;99965.59;;;8.29;100.00
12203;BME280;6164;42.178;24.622;2023-04-08T03:59:27;99968.25;;;8.29;100.00
12203;BME280;6164;42.178;24.622;2023-04-08T04:01:55;99973.38;;;8.30;100.00
12203;BME280;6164;42.178;24.622;2023-04-08T04:04:21;99972.84;;;8.27;100.00
12203;BME280;6164;42.178;24.622;2023-04-08T04:06:48;99969.22;;;8.28;100.00
12203;BME280;6164;42.178;24.622;2023-04-08T04:09:14;99982.09;;;8.31;100.00
12203;BME280;6164;42.178;24.622;2023-04-08T04:11:41;99977.66;;;8.31;100.00
12203;BME280;6164;42.178;24.622;2023-04-08T04:14:08;99977.81;;;8.30;100.00
12203;BME280;6164;42.178;24.622;2023-04-08T04:16:34;99977.41;;;8.25;100.00
12203;BME280;6164;42.178;24.622;2023-04-08T04:19:02;99986.00;;;8.27;100.00
12203;BME280;6164;42.178;24.622;2023-04-08T04:21:28;99988.31;;;8.30;100.00
12203;BME280;6164;42.178;24.622;2023-04-08T04:23:55;99990.81;;;8.31;100.00
12203;BME280;6164;42.178;24.622;2023-04-08T04:26:21;99985.41;;;8.33;100.00
12203;BME280;6164;42.178;24.622;2023-04-08T04:28:48;99978.91;;;8.37;100.00
12203;BME280;6164;42.178;24.622;2023-04-08T04:31:18;99980.25;;;8.41;100.00
12203;BME280;6164;42.178;24.622;2023-04-08T04:33:45;99988.97;;;8.41;100.00
12203;BME280;6164;42.178;24.622;2023-04-08T04:36:13;99991.31;;;8.44;100.00
12203;BME280;6164;42.178;24.622;2023-04-08T04:38:40;99985.91;;;8.46;100.00
12203;BME280;6164;42.178;24.622;2023-04-08T04:41:08;99988.09;;;8.50;100.00
12203;BME280;6164;42.178;24.622;2023-04-08T04:43:34;99984.50;;;8.51;100.00
12203;BME280;6164;42.178;24.622;2023-04-08T04:46:01;99979.94;;;8.53;100.00
12203;BME280;6164;42.178;24.622;2023-04-08T04:48:28;99989.03;;;8.59;100.00
12203;BME280;6164;42.178;24.622;2023-04-08T04:50:55;99988.88;;;8.60;100.00
12203;BME280;6164;42.178;24.622;2023-04-08T04:53:23;99990.25;;;8.64;100.00
12203;BME280;6164;42.178;24.622;2023-04-08T04:55:50;99996.19;;;8.66;100.00
12203;BME280;6164;42.178;24.622;2023-04-08T04:58:16;99997.56;;;8.70;100.00
12203;BME280;6164;42.178;24.622;2023-04-08T05:00:43;99999.63;;;8.76;100.00
12203;BME280;6164;42.178;24.622;2023-04-08T05:03:10;99998.34;;;8.80;100.00
12203;BME280;6164;42.178;24.622;2023-04-08T05:05:36;99999.72;;;8.84;100.00
12203;BME280;6164;42.178;24.622;2023-04-08T05:08:03;100005.78;;;8.85;100.00
12203;BME280;6164;42.178;24.622;2023-04-08T05:10:32;100007.84;;;8.91;100.00
12203;BME280;6164;42.178;24.622;2023-04-08T05:12:59;100008.88;;;8.98;100.00
12203;BME280;6164;42.178;24.622;2023-04-08T05:15:25;100013.72;;;9.02;100.00
12203;BME280;6164;42.178;24.622;2023-04-08T05:17:52;100015.06;;;9.06;100.00
12203;BME280;6164;42.178;24.622;2023-04-08T05:20:18;100015.47;;;9.11;100.00
12203;BME280;6164;42.178;24.622;2023-04-08T05:22:45;100020.16;;;9.17;100.00
12203;BME280;6164;42.178;24.622;2023-04-08T05:25:11;100024.66;;;9.25;100.00
12203;BME280;6164;42.178;24.622;2023-04-08T05:27:39;100028.38;;;9.32;100.00
12203;BME280;6164;42.178;24.622;2023-04-08T05:30:06;100026.75;;;9.39;100.00
12203;BME280;6164;42.178;24.622;2023-04-08T05:32:33;100029.50;;;9.47;100.00
12203;BME280;6164;42.178;24.622;2023-04-08T05:35:01;100021.44;;;9.49;100.00
12203;BME280;6164;42.178;24.622;2023-04-08T05:37:27;100019.84;;;9.56;100.00
12203;BME280;6164;42.178;24.622;2023-04-08T05:39:54;100019.41;;;9.60;100.00
12203;BME280;6164;42.178;24.622;2023-04-08T05:42:20;100018.78;;;9.66;100.00
12203;BME280;6164;42.178;24.622;2023-04-08T05:44:48;100014.34;;;9.67;100.00
12203;BME280;6164;42.178;24.622;2023-04-08T05:47:14;100017.94;;;9.66;100.00
12203;BME280;6164;42.178;24.622;2023-04-08T05:49:41;100019.16;;;9.71;100.00
12203;BME280;6164;42.178;24.622;2023-04-08T05:52:07;100024.66;;;9.78;100.00
12203;BME280;6164;42.178;24.622;2023-04-08T05:54:34;100027.50;;;9.84;100.00
12203;BME280;6164;42.178;24.622;2023-04-08T05:57:00;100024.56;;;9.87;100.00
12203;BME280;6164;42.178;24.622;2023-04-08T05:59:27;100023.81;;;9.95;100.00
12203;BME280;6164;42.178;24.622;2023-04-08T06:01:55;100021.38;;;10.01;100.00
12203;BME280;6164;42.178;24.622;2023-04-08T06:04:21;100024.78;;;10.11;100.00
12203;BME280;6164;42.178;24.622;2023-04-08T06:06:48;100017.34;;;10.15;100.00
12203;BME280;6164;42.178;24.622;2023-04-08T06:09:15;100026.13;;;10.15;100.00
12203;BME280;6164;42.178;24.622;2023-04-08T06:11:41;100022.03;;;10.21;100.00
12203;BME280;6164;42.178;24.622;2023-04-08T06:14:08;100020.13;;;10.31;100.00
12203;BME280;6164;42.178;24.622;2023-04-08T06:16:34;100015.03;;;10.37;100.00
12203;BME280;6164;42.178;24.622;2023-04-08T06:19:02;100023.00;;;10.45;100.00
12203;BME280;6164;42.178;24.622;2023-04-08T06:21:29;100025.16;;;10.50;100.00
12203;BME280;6164;42.178;24.622;2023-04-08T06:23:55;100022.19;;;10.53;100.00
12203;BME280;6164;42.178;24.622;2023-04-08T06:26:22;100019.91;;;10.58;100.00
12203;BME280;6164;42.178;24.622;2023-04-08T06:28:48;100023.41;;;10.58;100.00
12203;BME280;6164;42.178;24.622;2023-04-08T06:31:16;100016.66;;;10.64;100.00
12203;BME280;6164;42.178;24.622;2023-04-08T06:33:42;100016.38;;;10.75;100.00
12203;BME280;6164;42.178;24.622;2023-04-08T06:36:10;100015.41;;;10.84;100.00
12203;BME280;6164;42.178;24.622;2023-04-08T06:38:37;100014.13;;;10.88;100.00
12203;BME280;6164;42.178;24.622;2023-04-08T06:41:04;100014.13;;;10.96;100.00
12203;BME280;6164;42.178;24.622;2023-04-08T06:43:31;100012.31;;;10.97;100.00
12203;BME280;6164;42.178;24.622;2023-04-08T06:45:58;100007.84;;;10.97;100.00
12203;BME280;6164;42.178;24.622;2023-04-08T06:48:24;100009.19;;;11.01;100.00
12203;BME280;6164;42.178;24.622;2023-04-08T06:50:53;100005.25;;;11.05;100.00
12203;BME280;6164;42.178;24.622;2023-04-08T06:53:22;100011.84;;;11.09;100.00
12203;BME280;6164;42.178;24.622;2023-04-08T06:55:50;100003.94;;;11.17;100.00
12203;BME280;6164;42.178;24.622;2023-04-08T06:58:16;100002.16;;;11.26;100.00
12203;BME280;6164;42.178;24.622;2023-04-08T07:00:43;99999.84;;;11.39;100.00
12203;BME280;6164;42.178;24.622;2023-04-08T07:03:09;99996.88;;;11.42;100.00
12203;BME280;6164;42.178;24.622;2023-04-08T07:05:36;99999.22;;;11.45;100.00
12203;BME280;6164;42.178;24.622;2023-04-08T07:08:03;100009.47;;;11.48;100.00
12203;BME280;6164;42.178;24.622;2023-04-08T07:10:31;100009.81;;;11.53;100.00
12203;BME280;6164;42.178;24.622;2023-04-08T07:12:57;100011.81;;;11.75;100.00
12203;BME280;6164;42.178;24.622;2023-04-08T07:15:24;100013.81;;;11.81;100.00
12203;BME280;6164;42.178;24.622;2023-04-08T07:17:50;100009.34;;;11.98;97.37
12203;BME280;6164;42.178;24.622;2023-04-08T07:20:17;100012.78;;;12.06;96.61
12203;BME280;6164;42.178;24.622;2023-04-08T07:22:43;100012.28;;;12.11;97.19
12203;BME280;6164;42.178;24.622;2023-04-08T07:25:10;100009.47;;;12.20;95.47
12203;BME280;6164;42.178;24.622;2023-04-08T07:27:38;100005.28;;;12.26;94.51
12203;BME280;6164;42.178;24.622;2023-04-08T07:30:05;100007.63;;;12.29;94.78
12203;BME280;6164;42.178;24.622;2023-04-08T07:32:31;99999.50;;;12.30;94.73
12203;BME280;6164;42.178;24.622;2023-04-08T07:34:58;100000.81;;;12.34;93.44
12203;BME280;6164;42.178;24.622;2023-04-08T07:37:24;100008.06;;;12.48;92.07
12203;BME280;6164;42.178;24.622;2023-04-08T07:39:51;100010.19;;;12.53;90.12
12203;BME280;6164;42.178;24.622;2023-04-08T07:42:17;100000.91;;;12.65;90.57
12203;BME280;6164;42.178;24.622;2023-04-08T07:44:45;100006.34;;;12.71;89.99
12203;BME280;6164;42.178;24.622;2023-04-08T07:47:12;100011.13;;;12.68;90.34
12203;BME280;6164;42.178;24.622;2023-04-08T07:49:38;100009.28;;;12.76;88.82
12203;BME280;6164;42.178;24.622;2023-04-08T07:52:05;100007.75;;;12.82;87.91
12203;BME280;6164;42.178;24.622;2023-04-08T07:54:32;100013.16;;;12.96;87.36
12203;BME280;6164;42.178;24.622;2023-04-08T07:56:58;100018.41;;;13.12;86.59
12203;BME280;6164;42.178;24.622;2023-04-08T07:59:26;100014.53;;;13.23;84.59
12203;BME280;6164;42.178;24.622;2023-04-08T08:01:53;100019.16;;;13.29;83.77
12203;BME280;6164;42.178;24.622;2023-04-08T08:04:20;100014.44;;;13.39;83.32
12203;BME280;6164;42.178;24.622;2023-04-08T08:06:49;100014.09;;;13.42;83.71
12203;BME280;6164;42.178;24.622;2023-04-08T08:09:16;100015.38;;;13.46;82.74
12203;BME280;6164;42.178;24.622;2023-04-08T08:11:42;100011.69;;;13.55;83.29
12203;BME280;6164;42.178;24.622;2023-04-08T08:14:09;100022.47;;;13.54;80.82
12203;BME280;6164;42.178;24.622;2023-04-08T08:16:37;100024.94;;;13.55;80.47
12203;BME280;6164;42.178;24.622;2023-04-08T08:19:05;100023.94;;;13.56;80.89
12203;BME280;6164;42.178;24.622;2023-04-08T08:21:35;100018.25;;;13.59;81.33
12203;BME280;6164;42.178;24.622;2023-04-08T08:24:01;100016.09;;;13.63;80.18
12203;BME280;6164;42.178;24.622;2023-04-08T08:26:28;100017.41;;;13.67;80.14
12203;BME280;6164;42.178;24.622;2023-04-08T08:28:54;100011.50;;;13.57;80.73
12203;BME280;6164;42.178;24.622;2023-04-08T08:31:21;100011.78;;;13.62;80.65
12203;BME280;6164;42.178;24.622;2023-04-08T08:33:47;100012.97;;;13.82;81.58
12203;BME280;6164;42.178;24.622;2023-04-08T08:36:15;100008.34;;;13.76;80.95
12203;BME280;6164;42.178;24.622;2023-04-08T08:38:42;100003.44;;;13.87;79.68
12203;BME280;6164;42.178;24.622;2023-04-08T08:41:08;100001.28;;;14.05;79.03
12203;BME280;6164;42.178;24.622;2023-04-08T08:43:35;99999.38;;;14.14;76.29
12203;BME280;6164;42.178;24.622;2023-04-08T08:46:02;100003.69;;;14.15;76.42
12203;BME280;6164;42.178;24.622;2023-04-08T08:48:29;99998.06;;;14.32;76.85
12203;BME280;6164;42.178;24.622;2023-04-08T08:50:56;99997.41;;;14.30;76.30
12203;BME280;6164;42.178;24.622;2023-04-08T08:53:27;99992.38;;;14.35;76.02
12203;BME280;6164;42.178;24.622;2023-04-08T08:55:54;100001.75;;;14.31;74.46
12203;BME280;6164;42.178;24.622;2023-04-08T08:58:21;99994.84;;;14.37;76.13
12203;BME280;6164;42.178;24.622;2023-04-08T09:00:47;99998.53;;;14.36;75.41
12203;BME280;6164;42.178;24.622;2023-04-08T09:03:14;99994.94;;;14.58;74.48
12203;BME280;6164;42.178;24.622;2023-04-08T09:05:47;99999.53;;;14.64;73.81
12203;BME280;6164;42.178;24.622;2023-04-08T09:08:24;99995.47;;;14.68;73.71
12203;BME280;6164;42.178;24.622;2023-04-08T09:10:52;100001.22;;;14.86;73.65
12203;BME280;6164;42.178;24.622;2023-04-08T09:13:18;100002.13;;;15.08;72.48
12203;BME280;6164;42.178;24.622;2023-04-08T09:15:59;100012.63;;;15.16;69.45
12203;BME280;6164;42.178;24.622;2023-04-08T09:18:26;100003.34;;;15.26;69.93
12203;BME280;6164;42.178;24.622;2023-04-08T09:20:52;100025.38;;;15.56;65.46
12203;BME280;6164;42.178;24.622;2023-04-08T09:23:19;100046.09;;;15.81;63.23
12203;BME280;6164;42.178;24.622;2023-04-08T09:25:45;100031.72;;;15.97;63.18
12203;BME280;6164;42.178;24.622;2023-04-08T09:28:19;100048.28;;;16.20;62.46
12203;BME280;6164;42.178;24.622;2023-04-08T09:30:45;100048.03;;;16.15;61.05
12203;BME280;6164;42.178;24.622;2023-04-08T09:33:12;100033.38;;;16.26;62.70
12203;BME280;6164;42.178;24.622;2023-04-08T09:35:39;100035.13;;;16.12;62.21
12203;BME280;6164;42.178;24.622;2023-04-08T09:38:05;100000.97;;;15.95;61.19
12203;BME280;6164;42.178;24.622;2023-04-08T09:40:32;100041.66;;;16.37;61.86
12203;BME280;6164;42.178;24.622;2023-04-08T09:43:00;100039.34;;;16.55;60.29
12203;BME280;6164;42.178;24.622;2023-04-08T09:45:36;100053.00;;;16.73;58.52
12203;BME280;6164;42.178;24.622;2023-04-08T09:48:08;100055.06;;;16.78;57.90
12203;BME280;6164;42.178;24.622;2023-04-08T09:50:37;100055.44;;;16.68;58.41
12203;BME280;6164;42.178;24.622;2023-04-08T09:53:07;100061.97;;;16.66;57.78
12203;BME280;6164;42.178;24.622;2023-04-08T09:55:35;100055.44;;;16.68;57.65
12203;BME280;6164;42.178;24.622;2023-04-08T09:58:02;100042.06;;;16.62;58.81
12203;BME280;6164;42.178;24.622;2023-04-08T10:00:33;100050.06;;;16.62;58.71
12203;BME280;6164;42.178;24.622;2023-04-08T10:03:10;100054.97;;;16.58;57.70
12203;BME280;6164;42.178;24.622;2023-04-08T10:05:39;100049.81;;;16.57;57.90
12203;BME280;6164;42.178;24.622;2023-04-08T10:08:06;100038.69;;;16.47;58.26
12203;BME280;6164;42.178;24.622;2023-04-08T10:10:33;100025.00;;;16.56;59.11
12203;BME280;6164;42.178;24.622;2023-04-08T10:13:01;100025.25;;;16.34;59.58
12203;BME280;6164;42.178;24.622;2023-04-08T10:15:28;100022.81;;;16.39;59.15
12203;BME280;6164;42.178;24.622;2023-04-08T10:17:56;100038.13;;;16.30;57.86
12203;BME280;6164;42.178;24.622;2023-04-08T10:20:45;100039.66;;;16.18;57.66
12203;BME280;6164;42.178;24.622;2023-04-08T10:23:12;100019.22;;;16.25;58.50
12203;BME280;6164;42.178;24.622;2023-04-08T10:25:39;100011.63;;;16.22;59.36
12203;BME280;6164;42.178;24.622;2023-04-08T10:28:25;100014.25;;;16.16;58.25
12203;BME280;6164;42.178;24.622;2023-04-08T10:30:51;100013.72;;;16.27;58.09
12203;BME280;6164;42.178;24.622;2023-04-08T10:33:21;100015.34;;;16.49;57.30
12203;BME280;6164;42.178;24.622;2023-04-08T10:35:51;100027.75;;;16.69;55.98
12203;BME280;6164;42.178;24.622;2023-04-08T10:38:18;100031.13;;;16.91;56.27
12203;BME280;6164;42.178;24.622;2023-04-08T10:40:46;100042.03;;;16.96;55.56
12203;BME280;6164;42.178;24.622;2023-04-08T10:43:13;100039.00;;;17.05;54.77
12203;BME280;6164;42.178;24.622;2023-04-08T10:45:40;100033.69;;;17.12;54.66
12203;BME280;6164;42.178;24.622;2023-04-08T10:48:14;100029.59;;;17.16;55.12
12203;BME280;6164;42.178;24.622;2023-04-08T10:50:41;100030.84;;;17.27;54.20
12203;BME280;6164;42.178;24.622;2023-04-08T10:53:10;100031.31;;;17.43;54.41
12203;BME280;6164;42.178;24.622;2023-04-08T10:55:36;100019.59;;;17.25;54.95
12203;BME280;6164;42.178;24.622;2023-04-08T10:58:06;100035.06;;;17.55;53.27
12203;BME280;6164;42.178;24.622;2023-04-08T11:00:34;100049.28;;;17.69;52.76
12203;BME280;6164;42.178;24.622;2023-04-08T11:03:01;100041.47;;;17.67;53.23
12203;BME280;6164;42.178;24.622;2023-04-08T11:05:28;100033.81;;;17.51;53.54
12203;BME280;6164;42.178;24.622;2023-04-08T11:07:55;100037.91;;;17.41;53.31
12203;BME280;6164;42.178;24.622;2023-04-08T11:10:23;100026.59;;;17.39;53.73
12203;BME280;6164;42.178;24.622;2023-04-08T11:12:56;100020.09;;;17.48;53.42
12203;BME280;6164;42.178;24.622;2023-04-08T11:15:23;100021.22;;;17.32;52.93
12203;BME280;6164;42.178;24.622;2023-04-08T11:17:50;100023.38;;;17.56;53.00
12203;BME280;6164;42.178;24.622;2023-04-08T11:20:17;100002.66;;;17.84;53.96
12203;BME280;6164;42.178;24.622;2023-04-08T11:22:44;100002.66;;;18.10;53.31
12203;BME280;6164;42.178;24.622;2023-04-08T11:25:12;100003.47;;;17.91;53.20
12203;BME280;6164;42.178;24.622;2023-04-08T11:27:40;99997.94;;;17.93;52.83
12203;BME280;6164;42.178;24.622;2023-04-08T11:30:07;100001.44;;;17.93;52.52
12203;BME280;6164;42.178;24.622;2023-04-08T11:32:34;99985.41;;;18.00;53.47
12203;BME280;6164;42.178;24.622;2023-04-08T11:35:03;99997.91;;;18.12;52.25
12203;BME280;6164;42.178;24.622;2023-04-08T11:37:35;99992.16;;;18.48;52.25
12203;BME280;6164;42.178;24.622;2023-04-08T11:40:01;99984.66;;;18.83;52.51
12203;BME280;6164;42.178;24.622;2023-04-08T11:42:31;100010.22;;;19.16;50.43
12203;BME280;6164;42.178;24.622;2023-04-08T11:44:59;100025.13;;;18.99;50.35
12203;BME280;6164;42.178;24.622;2023-04-08T11:47:29;100019.19;;;18.91;49.99
12203;BME280;6164;42.178;24.622;2023-04-08T11:49:57;100027.66;;;18.81;49.86
12203;BME280;6164;42.178;24.622;2023-04-08T11:52:39;100025.81;;;18.75;49.99
12203;BME280;6164;42.178;24.622;2023-04-08T11:55:05;100016.38;;;18.66;50.53
12203;BME280;6164;42.178;24.622;2023-04-08T11:57:32;100020.53;;;18.49;49.74
12203;BME280;6164;42.178;24.622;2023-04-08T12:00:00;100008.56;;;18.38;50.82
12203;BME280;6164;42.178;24.622;2023-04-08T12:02:29;99996.88;;;18.33;51.01
12203;BME280;6164;42.178;24.622;2023-04-08T12:04:56;99966.00;;;18.37;51.46
12203;BME280;6164;42.178;24.622;2023-04-08T12:07:22;99992.56;;;18.32;50.64
12203;BME280;6164;42.178;24.622;2023-04-08T12:09:49;99960.28;;;18.20;52.03
12203;BME280;6164;42.178;24.622;2023-04-08T12:12:15;99952.72;;;17.98;52.14
12203;BME280;6164;42.178;24.622;2023-04-08T12:14:42;99955.59;;;17.96;51.31
12203;BME280;6164;42.178;24.622;2023-04-08T12:17:09;99963.44;;;17.78;51.50
12203;BME280;6164;42.178;24.622;2023-04-08T12:19:36;99943.69;;;17.79;52.28
12203;BME280;6164;42.178;24.622;2023-04-08T12:22:03;99952.53;;;17.67;51.54
12203;BME280;6164;42.178;24.622;2023-04-08T12:24:29;99929.34;;;17.61;52.60
12203;BME280;6164;42.178;24.622;2023-04-08T12:26:56;99915.78;;;17.62;52.67
12203;BME280;6164;42.178;24.622;2023-04-08T12:29:22;99930.97;;;17.62;51.93
12203;BME280;6164;42.178;24.622;2023-04-08T12:31:49;99929.34;;;17.61;52.13
12203;BME280;6164;42.178;24.622;2023-04-08T12:34:17;99933.00;;;17.60;52.33
12203;BME280;6164;42.178;24.622;2023-04-08T12:36:44;99919.66;;;17.47;52.55
12203;BME280;6164;42.178;24.622;2023-04-08T12:39:11;99888.00;;;17.44;52.90
12203;BME280;6164;42.178;24.622;2023-04-08T12:41:38;99907.53;;;17.38;52.57
12203;BME280;6164;42.178;24.622;2023-04-08T12:44:04;99885.13;;;17.39;53.38
12203;BME280;6164;42.178;24.622;2023-04-08T12:46:30;99876.09;;;17.40;53.83
12203;BME280;6164;42.178;24.622;2023-04-08T12:48:57;99884.09;;;17.40;52.89
12203;BME280;6164;42.178;24.622;2023-04-08T12:51:25;99869.75;;;17.34;53.71
12203;BME280;6164;42.178;24.622;2023-04-08T12:53:51;99869.53;;;17.36;53.30
12203;BME280;6164;42.178;24.622;2023-04-08T12:56:18;99870.38;;;17.43;53.17